sensor_id;sensor_type;location;lat;lon;timestamp;pressure;altitude;pressure_sealevel;temperature;humidity
55675;BME280;41562;44.330;23.802;2023-08-01T00:02:16;99714.56;;;20.91;100.00
55675;BME280;41562;44.330;23.802;2023-08-01T00:05:08;99715.47;;;20.79;100.00
55675;BME280;41562;44.330;23.802;2023-08-01T00:08:00;99707.03;;;20.84;100.00
55675;BME280;41562;44.330;23.802;2023-08-01T00:10:52;99707.38;;;20.99;100.00
55675;BME280;41562;44.330;23.802;2023-08-01T00:13:44;99705.34;;;21.11;100.00
55675;BME280;41562;44.330;23.802;2023-08-01T00:16:36;99713.75;;;21.06;100.00
55675;BME280;41562;44.330;23.802;2023-08-01T00:19:28;99708.78;;;20.93;100.00
55675;BME280;41562;44.330;23.802;2023-08-01T00:22:20;99702.56;;;20.92;100.00
55675;BME280;41562;44.330;23.802;2023-08-01T00:25:12;99699.47;;;20.94;100.00
55675;BME280;41562;44.330;23.802;2023-08-01T00:28:04;99697.53;;;20.94;100.00
55675;BME280;41562;44.330;23.802;2023-08-01T00:31:06;99713.50;;;20.96;100.00
55675;BME280;41562;44.330;23.802;2023-08-01T00:33:59;99708.00;;;20.92;100.00
55675;BME280;41562;44.330;23.802;2023-08-01T00:36:51;99709.84;;;20.88;100.00
55675;BME280;41562;44.330;23.802;2023-08-01T00:39:43;99710.97;;;20.87;100.00
55675;BME280;41562;44.330;23.802;2023-08-01T00:42:38;99715.09;;;20.97;100.00
55675;BME280;41562;44.330;23.802;2023-08-01T00:45:30;99718.09;;;20.92;100.00
55675;BME280;41562;44.330;23.802;2023-08-01T00:48:21;99714.06;;;20.85;100.00
55675;BME280;41562;44.330;23.802;2023-08-01T00:51:15;99712.47;;;20.84;100.00
55675;BME280;41562;44.330;23.802;2023-08-01T00:54:07;99719.03;;;20.68;100.00
55675;BME280;41562;44.330;23.802;2023-08-01T00:56:58;99714.69;;;20.79;100.00
55675;BME280;41562;44.330;23.802;2023-08-01T00:59:51;99708.09;;;20.64;100.00
55675;BME280;41562;44.330;23.802;2023-08-01T01:02:43;99718.97;;;20.49;100.00
55675;BME280;41562;44.330;23.802;2023-08-01T01:05:36;99718.84;;;20.29;100.00
55675;BME280;41562;44.330;23.802;2023-08-01T01:08:30;99710.25;;;20.27;100.00
55675;BME280;41562;44.330;23.802;2023-08-01T01:11:22;99714.38;;;20.37;100.00
55675;BME280;41562;44.330;23.802;2023-08-01T01:14:14;99701.03;;;20.32;100.00
55675;BME280;41562;44.330;23.802;2023-08-01T01:17:06;99700.78;;;20.21;100.00
55675;BME280;41562;44.330;23.802;2023-08-01T01:19:58;99699.81;;;20.29;100.00
55675;BME280;41562;44.330;23.802;2023-08-01T01:22:54;99695.78;;;20.23;100.00
55675;BME280;41562;44.330;23.802;2023-08-01T01:25:49;99695.06;;;20.26;100.00
55675;BME280;41562;44.330;23.802;2023-08-01T01:28:42;99690.78;;;20.25;100.00
55675;BME280;41562;44.330;23.802;2023-08-01T01:31:35;99683.16;;;20.15;100.00
55675;BME280;41562;44.330;23.802;2023-08-01T01:34:27;99687.66;;;20.23;100.00
55675;BME280;41562;44.330;23.802;2023-08-01T01:37:19;99694.63;;;20.24;100.00
55675;BME280;41562;44.330;23.802;2023-08-01T01:40:11;99690.69;;;20.22;100.00
55675;BME280;41562;44.330;23.802;2023-08-01T01:43:03;99683.94;;;20.16;100.00
55675;BME280;41562;44.330;23.802;2023-08-01T01:45:55;99692.09;;;20.16;100.00
55675;BME280;41562;44.330;23.802;2023-08-01T01:48:47;99683.75;;;20.08;100.00
55675;BME280;41562;44.330;23.802;2023-08-01T01:51:41;99688.25;;;20.17;100.00
55675;BME280;41562;44.330;23.802;2023-08-01T01:54:34;99677.81;;;20.19;100.00
55675;BME280;41562;44.330;23.802;2023-08-01T01:57:26;99671.78;;;20.10;100.00
55675;BME280;41562;44.330;23.802;2023-08-01T02:00:21;99665.69;;;20.60;100.00
55675;BME280;41562;44.330;23.802;2023-08-01T02:03:13;99664.91;;;20.59;100.00
55675;BME280;41562;44.330;23.802;2023-08-01T02:06:05;99676.25;;;20.80;100.00
55675;BME280;41562;44.330;23.802;2023-08-01T02:08:57;99669.31;;;20.99;100.00
55675;BME280;41562;44.330;23.802;2023-08-01T02:11:49;99671.75;;;21.39;100.00
55675;BME280;41562;44.330;23.802;2023-08-01T02:14:41;99679.78;;;21.89;100.00
55675;BME280;41562;44.330;23.802;2023-08-01T02:17:33;99680.84;;;22.23;100.00
55675;BME280;41562;44.330;23.802;2023-08-01T02:20:25;99682.28;;;22.40;100.00
55675;BME280;41562;44.330;23.802;2023-08-01T02:23:17;99684.69;;;22.45;100.00
55675;BME280;41562;44.330;23.802;2023-08-01T02:26:09;99682.75;;;21.81;100.00
55675;BME280;41562;44.330;23.802;2023-08-01T02:29:01;99680.06;;;21.26;100.00
55675;BME280;41562;44.330;23.802;2023-08-01T02:31:53;99683.47;;;20.73;100.00
55675;BME280;41562;44.330;23.802;2023-08-01T02:34:45;99682.34;;;21.24;100.00
55675;BME280;41562;44.330;23.802;2023-08-01T02:37:37;99685.16;;;21.47;100.00
55675;BME280;41562;44.330;23.802;2023-08-01T02:40:29;99686.47;;;21.53;100.00
55675;BME280;41562;44.330;23.802;2023-08-01T02:43:21;99681.44;;;21.36;100.00
55675;BME280;41562;44.330;23.802;2023-08-01T02:46:13;99679.09;;;21.54;100.00
55675;BME280;41562;44.330;23.802;2023-08-01T02:49:05;99684.94;;;21.75;100.00
55675;BME280;41562;44.330;23.802;2023-08-01T02:51:57;99686.25;;;21.81;100.00
55675;BME280;41562;44.330;23.802;2023-08-01T02:54:49;99686.31;;;21.46;100.00
55675;BME280;41562;44.330;23.802;2023-08-01T02:57:41;99698.84;;;21.51;100.00
55675;BME280;41562;44.330;23.802;2023-08-01T03:00:33;99692.34;;;21.20;100.00
55675;BME280;41562;44.330;23.802;2023-08-01T03:03:25;99691.75;;;21.11;100.00
55675;BME280;41562;44.330;23.802;2023-08-01T03:06:17;99696.75;;;21.09;100.00
55675;BME280;41562;44.330;23.802;2023-08-01T03:09:09;99691.94;;;21.38;100.00
55675;BME280;41562;44.330;23.802;2023-08-01T03:12:01;99700.38;;;21.33;100.00
55675;BME280;41562;44.330;23.802;2023-08-01T03:14:53;99697.78;;;21.20;100.00
55675;BME280;41562;44.330;23.802;2023-08-01T03:17:45;99695.38;;;21.35;100.00
55675;BME280;41562;44.330;23.802;2023-08-01T03:20:37;99699.03;;;21.23;100.00
55675;BME280;41562;44.330;23.802;2023-08-01T03:23:29;99704.25;;;21.32;100.00
55675;BME280;41562;44.330;23.802;2023-08-01T03:26:21;99704.22;;;21.47;100.00
55675;BME280;41562;44.330;23.802;2023-08-01T03:29:13;99698.69;;;21.44;100.00
55675;BME280;41562;44.330;23.802;2023-08-01T03:32:05;99703.84;;;21.30;100.00
55675;BME280;41562;44.330;23.802;2023-08-01T03:34:57;99694.72;;;21.06;100.00
55675;BME280;41562;44.330;23.802;2023-08-01T03:37:51;99697.75;;;21.36;100.00
55675;BME280;41562;44.330;23.802;2023-08-01T03:40:43;99695.13;;;21.78;100.00
55675;BME280;41562;44.330;23.802;2023-08-01T03:43:35;99686.16;;;21.78;100.00
55675;BME280;41562;44.330;23.802;2023-08-01T03:46:27;99689.03;;;21.46;100.00
55675;BME280;41562;44.330;23.802;2023-08-01T03:49:19;99680.00;;;21.23;100.00
55675;BME280;41562;44.330;23.802;2023-08-01T03:52:11;99687.63;;;21.17;100.00
55675;BME280;41562;44.330;23.802;2023-08-01T03:55:03;99686.66;;;21.10;100.00
55675;BME280;41562;44.330;23.802;2023-08-01T03:57:55;99683.22;;;21.29;100.00
55675;BME280;41562;44.330;23.802;2023-08-01T04:00:47;99688.19;;;20.92;100.00
55675;BME280;41562;44.330;23.802;2023-08-01T04:03:39;99701.38;;;21.09;100.00
55675;BME280;41562;44.330;23.802;2023-08-01T04:06:31;99703.09;;;21.33;100.00
55675;BME280;41562;44.330;23.802;2023-08-01T04:09:23;99704.84;;;21.41;100.00
55675;BME280;41562;44.330;23.802;2023-08-01T04:12:15;99699.69;;;21.36;100.00
55675;BME280;41562;44.330;23.802;2023-08-01T04:15:08;99706.00;;;22.17;100.00
55675;BME280;41562;44.330;23.802;2023-08-01T04:18:00;99719.84;;;22.50;100.00
55675;BME280;41562;44.330;23.802;2023-08-01T04:20:52;99716.81;;;22.55;100.00
55675;BME280;41562;44.330;23.802;2023-08-01T04:23:44;99731.84;;;22.68;100.00
55675;BME280;41562;44.330;23.802;2023-08-01T04:26:36;99741.53;;;22.89;100.00
55675;BME280;41562;44.330;23.802;2023-08-01T04:29:28;99745.47;;;22.68;100.00
55675;BME280;41562;44.330;23.802;2023-08-01T04:32:20;99738.66;;;22.59;100.00
55675;BME280;41562;44.330;23.802;2023-08-01T04:35:12;99747.00;;;22.46;100.00
55675;BME280;41562;44.330;23.802;2023-08-01T04:38:04;99753.00;;;22.33;100.00
55675;BME280;41562;44.330;23.802;2023-08-01T04:40:56;99749.59;;;22.17;100.00
55675;BME280;41562;44.330;23.802;2023-08-01T04:43:48;99743.97;;;22.52;100.00
55675;BME280;41562;44.330;23.802;2023-08-01T04:46:40;99745.47;;;22.68;100.00
55675;BME280;41562;44.330;23.802;2023-08-01T04:49:32;99754.69;;;22.83;100.00
55675;BME280;41562;44.330;23.802;2023-08-01T04:52:24;99745.50;;;22.49;100.00
55675;BME280;41562;44.330;23.802;2023-08-01T04:55:16;99746.88;;;22.81;100.00
55675;BME280;41562;44.330;23.802;2023-08-01T04:58:08;99746.94;;;22.01;100.00
55675;BME280;41562;44.330;23.802;2023-08-01T05:01:02;99748.72;;;22.55;100.00
55675;BME280;41562;44.330;23.802;2023-08-01T05:03:54;99753.78;;;22.75;100.00
55675;BME280;41562;44.330;23.802;2023-08-01T05:06:46;99746.91;;;22.62;100.00
55675;BME280;41562;44.330;23.802;2023-08-01T05:09:38;99748.69;;;22.74;100.00
55675;BME280;41562;44.330;23.802;2023-08-01T05:12:30;99750.66;;;22.54;100.00
55675;BME280;41562;44.330;23.802;2023-08-01T05:15:22;99745.44;;;22.45;100.00
55675;BME280;41562;44.330;23.802;2023-08-01T05:18:16;99747.31;;;22.64;100.00
55675;BME280;41562;44.330;23.802;2023-08-01T05:21:08;99753.00;;;22.75;100.00
55675;BME280;41562;44.330;23.802;2023-08-01T05:24:00;99759.06;;;22.88;100.00
55675;BME280;41562;44.330;23.802;2023-08-01T05:26:52;99756.09;;;22.73;100.00
55675;BME280;41562;44.330;23.802;2023-08-01T05:29:44;99765.16;;;23.04;100.00
55675;BME280;41562;44.330;23.802;2023-08-01T05:32:36;99761.69;;;23.07;100.00
55675;BME280;41562;44.330;23.802;2023-08-01T05:35:28;99754.56;;;23.25;100.00
55675;BME280;41562;44.330;23.802;2023-08-01T05:38:20;99761.91;;;22.95;100.00
55675;BME280;41562;44.330;23.802;2023-08-01T05:41:12;99760.25;;;22.90;100.00
55675;BME280;41562;44.330;23.802;2023-08-01T05:44:04;99757.78;;;22.81;100.00
55675;BME280;41562;44.330;23.802;2023-08-01T05:46:56;99749.06;;;22.95;100.00
55675;BME280;41562;44.330;23.802;2023-08-01T05:49:48;99747.09;;;22.96;100.00
55675;BME280;41562;44.330;23.802;2023-08-01T05:52:40;99746.38;;;22.99;100.00
55675;BME280;41562;44.330;23.802;2023-08-01T05:55:32;99744.34;;;23.18;100.00
55675;BME280;41562;44.330;23.802;2023-08-01T05:58:24;99749.13;;;23.25;100.00
55675;BME280;41562;44.330;23.802;2023-08-01T06:01:19;99746.34;;;23.48;100.00
55675;BME280;41562;44.330;23.802;2023-08-01T06:04:11;99748.06;;;23.33;100.00
55675;BME280;41562;44.330;23.802;2023-08-01T06:07:03;99741.34;;;23.53;100.00
55675;BME280;41562;44.330;23.802;2023-08-01T06:09:58;99745.75;;;23.61;100.00
55675;BME280;41562;44.330;23.802;2023-08-01T06:12:50;99742.78;;;23.74;100.00
55675;BME280;41562;44.330;23.802;2023-08-01T06:15:41;99743.63;;;24.11;99.25
55675;BME280;41562;44.330;23.802;2023-08-01T06:18:34;99747.09;;;24.08;98.95
55675;BME280;41562;44.330;23.802;2023-08-01T06:21:26;99754.13;;;24.09;98.50
55675;BME280;41562;44.330;23.802;2023-08-01T06:24:20;99739.09;;;23.92;100.00
55675;BME280;41562;44.330;23.802;2023-08-01T06:27:13;99747.13;;;24.45;97.18
55675;BME280;41562;44.330;23.802;2023-08-01T06:30:05;99739.94;;;24.70;98.25
55675;BME280;41562;44.330;23.802;2023-08-01T06:32:58;99740.44;;;24.83;96.35
55675;BME280;41562;44.330;23.802;2023-08-01T06:35:56;99738.59;;;24.94;94.35
55675;BME280;41562;44.330;23.802;2023-08-01T06:38:48;99738.41;;;25.20;93.42
55675;BME280;41562;44.330;23.802;2023-08-01T06:41:43;99738.53;;;25.42;93.00
55675;BME280;41562;44.330;23.802;2023-08-01T06:44:39;99736.13;;;25.33;92.80
55675;BME280;41562;44.330;23.802;2023-08-01T06:47:38;99730.06;;;25.65;92.74
55675;BME280;41562;44.330;23.802;2023-08-01T06:50:33;99735.84;;;25.56;93.03
55675;BME280;41562;44.330;23.802;2023-08-01T06:53:32;99735.53;;;25.68;92.45
55675;BME280;41562;44.330;23.802;2023-08-01T06:56:27;99731.81;;;25.32;93.14
55675;BME280;41562;44.330;23.802;2023-08-01T06:59:21;99735.84;;;25.56;93.11
55675;BME280;41562;44.330;23.802;2023-08-01T07:02:14;99737.00;;;25.55;94.16
55675;BME280;41562;44.330;23.802;2023-08-01T07:05:06;99737.56;;;25.82;92.56
55675;BME280;41562;44.330;23.802;2023-08-01T07:08:02;99743.84;;;25.82;91.23
55675;BME280;41562;44.330;23.802;2023-08-01T07:10:54;99743.88;;;25.89;91.41
55675;BME280;41562;44.330;23.802;2023-08-01T07:13:49;99744.28;;;26.06;90.32
55675;BME280;41562;44.330;23.802;2023-08-01T07:16:44;99747.00;;;25.91;91.55
55675;BME280;41562;44.330;23.802;2023-08-01T07:19:36;99739.00;;;25.54;93.15
55675;BME280;41562;44.330;23.802;2023-08-01T07:22:31;99739.16;;;25.93;91.89
55675;BME280;41562;44.330;23.802;2023-08-01T07:25:23;99738.78;;;25.91;89.88
55675;BME280;41562;44.330;23.802;2023-08-01T07:28:15;99740.13;;;26.47;88.35
55675;BME280;41562;44.330;23.802;2023-08-01T07:31:07;99730.72;;;26.62;87.35
55675;BME280;41562;44.330;23.802;2023-08-01T07:33:59;99735.81;;;26.81;85.79
55675;BME280;41562;44.330;23.802;2023-08-01T07:36:51;99732.72;;;26.79;85.62
55675;BME280;41562;44.330;23.802;2023-08-01T07:39:43;99729.13;;;26.29;87.46
55675;BME280;41562;44.330;23.802;2023-08-01T07:42:35;99727.47;;;26.07;86.17
55675;BME280;41562;44.330;23.802;2023-08-01T07:45:27;99727.00;;;25.87;87.68
55675;BME280;41562;44.330;23.802;2023-08-01T07:48:20;99736.56;;;26.29;85.36
55675;BME280;41562;44.330;23.802;2023-08-01T07:51:12;99731.13;;;26.78;81.03
55675;BME280;41562;44.330;23.802;2023-08-01T07:54:04;99729.16;;;26.82;78.67
55675;BME280;41562;44.330;23.802;2023-08-01T07:56:56;99724.34;;;26.09;84.05
55675;BME280;41562;44.330;23.802;2023-08-01T07:59:48;99721.94;;;25.86;85.15
55675;BME280;41562;44.330;23.802;2023-08-01T08:02:44;99726.31;;;26.19;85.02
55675;BME280;41562;44.330;23.802;2023-08-01T08:05:37;99725.25;;;26.59;81.33
55675;BME280;41562;44.330;23.802;2023-08-01T08:08:29;99717.31;;;26.18;82.25
55675;BME280;41562;44.330;23.802;2023-08-01T08:11:21;99725.63;;;26.36;81.93
55675;BME280;41562;44.330;23.802;2023-08-01T08:14:13;99726.03;;;26.77;81.45
55675;BME280;41562;44.330;23.802;2023-08-01T08:17:05;99721.31;;;27.20;80.48
55675;BME280;41562;44.330;23.802;2023-08-01T08:19:57;99729.06;;;27.57;77.96
55675;BME280;41562;44.330;23.802;2023-08-01T08:22:49;99733.81;;;27.53;75.62
55675;BME280;41562;44.330;23.802;2023-08-01T08:25:42;99730.66;;;27.58;74.58
55675;BME280;41562;44.330;23.802;2023-08-01T08:28:34;99731.00;;;27.71;75.38
55675;BME280;41562;44.330;23.802;2023-08-01T08:31:26;99725.91;;;27.66;75.20
55675;BME280;41562;44.330;23.802;2023-08-01T08:34:18;99726.25;;;27.82;75.58
55675;BME280;41562;44.330;23.802;2023-08-01T08:37:10;99727.28;;;28.16;76.82
55675;BME280;41562;44.330;23.802;2023-08-01T08:40:02;99726.06;;;28.24;74.94
55675;BME280;41562;44.330;23.802;2023-08-01T08:42:54;99723.34;;;28.17;73.77
55675;BME280;41562;44.330;23.802;2023-08-01T08:45:47;99718.94;;;28.27;73.32
55675;BME280;41562;44.330;23.802;2023-08-01T08:48:40;99718.50;;;27.45;73.97
55675;BME280;41562;44.330;23.802;2023-08-01T08:51:36;99712.72;;;26.90;75.47
55675;BME280;41562;44.330;23.802;2023-08-01T08:54:28;99713.47;;;26.30;77.99
55675;BME280;41562;44.330;23.802;2023-08-01T08:57:20;99708.34;;;26.25;79.50
55675;BME280;41562;44.330;23.802;2023-08-01T09:00:13;99706.72;;;26.13;81.92
55675;BME280;41562;44.330;23.802;2023-08-01T09:03:05;99694.69;;;26.67;79.71
55675;BME280;41562;44.330;23.802;2023-08-01T09:06:17;99706.44;;;26.89;74.85
55675;BME280;41562;44.330;23.802;2023-08-01T09:09:12;99698.56;;;27.19;75.60
55675;BME280;41562;44.330;23.802;2023-08-01T09:12:04;99694.69;;;26.64;77.18
55675;BME280;41562;44.330;23.802;2023-08-01T09:14:58;99696.63;;;26.77;78.17
55675;BME280;41562;44.330;23.802;2023-08-01T09:17:53;99695.81;;;27.23;76.31
55675;BME280;41562;44.330;23.802;2023-08-01T09:20:47;99690.75;;;27.00;76.26
55675;BME280;41562;44.330;23.802;2023-08-01T09:23:39;99688.00;;;27.11;76.26
55675;BME280;41562;44.330;23.802;2023-08-01T09:26:31;99685.63;;;27.16;77.13
55675;BME280;41562;44.330;23.802;2023-08-01T09:29:23;99679.69;;;27.32;75.75
55675;BME280;41562;44.330;23.802;2023-08-01T09:32:15;99676.50;;;27.58;72.52
55675;BME280;41562;44.330;23.802;2023-08-01T09:35:07;99678.25;;;27.97;73.67
55675;BME280;41562;44.330;23.802;2023-08-01T09:38:00;99677.72;;;28.23;69.24
55675;BME280;41562;44.330;23.802;2023-08-01T09:40:52;99668.69;;;28.26;70.37
55675;BME280;41562;44.330;23.802;2023-08-01T09:43:45;99671.31;;;28.40;70.35
55675;BME280;41562;44.330;23.802;2023-08-01T09:46:38;99673.91;;;28.03;71.38
55675;BME280;41562;44.330;23.802;2023-08-01T09:49:31;99665.22;;;28.15;71.93
55675;BME280;41562;44.330;23.802;2023-08-01T09:52:29;99662.34;;;27.64;72.40
55675;BME280;41562;44.330;23.802;2023-08-01T09:55:27;99656.97;;;27.28;73.51
55675;BME280;41562;44.330;23.802;2023-08-01T09:58:23;99656.25;;;26.96;75.20
55675;BME280;41562;44.330;23.802;2023-08-01T10:01:18;99647.53;;;27.26;74.56
55675;BME280;41562;44.330;23.802;2023-08-01T10:04:11;99649.03;;;27.48;74.38
55675;BME280;41562;44.330;23.802;2023-08-01T10:07:08;99640.94;;;27.96;73.61
55675;BME280;41562;44.330;23.802;2023-08-01T10:10:01;99650.69;;;28.08;71.64
55675;BME280;41562;44.330;23.802;2023-08-01T10:12:55;99645.13;;;28.25;70.38
55675;BME280;41562;44.330;23.802;2023-08-01T10:15:49;99635.94;;;28.43;70.24
55675;BME280;41562;44.330;23.802;2023-08-01T10:18:43;99629.88;;;28.14;70.91
55675;BME280;41562;44.330;23.802;2023-08-01T10:21:36;99633.34;;;27.55;71.03
55675;BME280;41562;44.330;23.802;2023-08-01T10:24:28;99623.50;;;27.62;71.78
55675;BME280;41562;44.330;23.802;2023-08-01T10:27:21;99618.63;;;27.90;71.89
55675;BME280;41562;44.330;23.802;2023-08-01T10:30:26;99613.34;;;28.17;71.46
55675;BME280;41562;44.330;23.802;2023-08-01T10:33:18;99601.22;;;28.56;71.07
55675;BME280;41562;44.330;23.802;2023-08-01T10:36:20;99600.22;;;28.35;71.57
55675;BME280;41562;44.330;23.802;2023-08-01T10:39:21;99602.38;;;28.10;70.53
55675;BME280;41562;44.330;23.802;2023-08-01T10:42:14;99598.69;;;27.76;71.72
55675;BME280;41562;44.330;23.802;2023-08-01T10:45:07;99589.47;;;27.38;73.60
55675;BME280;41562;44.330;23.802;2023-08-01T10:48:09;99585.25;;;27.12;73.92
55675;BME280;41562;44.330;23.802;2023-08-01T10:51:02;99580.97;;;27.04;76.40
55675;BME280;41562;44.330;23.802;2023-08-01T10:53:54;99572.75;;;26.97;75.59
55675;BME280;41562;44.330;23.802;2023-08-01T10:56:46;99576.69;;;26.89;74.17
55675;BME280;41562;44.330;23.802;2023-08-01T10:59:39;99572.78;;;26.79;74.41
55675;BME280;41562;44.330;23.802;2023-08-01T11:02:31;99555.91;;;26.91;76.06
55675;BME280;41562;44.330;23.802;2023-08-01T11:05:23;99559.97;;;27.45;77.76
55675;BME280;41562;44.330;23.802;2023-08-01T11:08:15;99568.00;;;27.84;75.55
55675;BME280;41562;44.330;23.802;2023-08-01T11:11:14;99559.25;;;28.00;71.87
55675;BME280;41562;44.330;23.802;2023-08-01T11:14:07;99557.06;;;28.32;72.21
55675;BME280;41562;44.330;23.802;2023-08-01T11:16:59;99550.72;;;28.35;68.79
55675;BME280;41562;44.330;23.802;2023-08-01T11:20:00;99564.34;;;28.50;67.71
55675;BME280;41562;44.330;23.802;2023-08-01T11:22:59;99544.31;;;28.46;68.50
55675;BME280;41562;44.330;23.802;2023-08-01T11:25:52;99542.28;;;28.57;67.65
55675;BME280;41562;44.330;23.802;2023-08-01T11:28:44;99543.06;;;28.57;65.92
55675;BME280;41562;44.330;23.802;2023-08-01T11:31:39;99538.34;;;28.54;66.05
55675;BME280;41562;44.330;23.802;2023-08-01T11:34:40;99539.59;;;28.87;67.12
55675;BME280;41562;44.330;23.802;2023-08-01T11:37:35;99530.63;;;28.83;63.98
55675;BME280;41562;44.330;23.802;2023-08-01T11:40:27;99522.19;;;28.60;64.96
55675;BME280;41562;44.330;23.802;2023-08-01T11:43:19;99524.31;;;28.45;65.62
55675;BME280;41562;44.330;23.802;2023-08-01T11:46:12;99512.25;;;28.69;66.96
55675;BME280;41562;44.330;23.802;2023-08-01T11:49:08;99518.38;;;28.84;66.40
55675;BME280;41562;44.330;23.802;2023-08-01T11:52:00;99513.41;;;28.75;66.74
55675;BME280;41562;44.330;23.802;2023-08-01T11:54:52;99517.66;;;28.80;65.93
55675;BME280;41562;44.330;23.802;2023-08-01T11:57:58;99508.78;;;28.99;66.00
55675;BME280;41562;44.330;23.802;2023-08-01T12:01:04;99506.31;;;28.71;65.36
55675;BME280;41562;44.330;23.802;2023-08-01T12:03:56;99496.03;;;28.82;66.53
55675;BME280;41562;44.330;23.802;2023-08-01T12:06:48;99499.88;;;28.88;66.19
55675;BME280;41562;44.330;23.802;2023-08-01T12:09:40;99493.84;;;28.97;65.55
55675;BME280;41562;44.330;23.802;2023-08-01T12:12:44;99495.59;;;28.84;66.51
55675;BME280;41562;44.330;23.802;2023-08-01T12:15:36;99485.72;;;28.86;65.71
55675;BME280;41562;44.330;23.802;2023-08-01T12:18:38;99488.94;;;28.81;66.32
55675;BME280;41562;44.330;23.802;2023-08-01T12:21:51;99482.34;;;28.75;65.60
55675;BME280;41562;44.330;23.802;2023-08-01T12:24:43;99490.59;;;28.37;66.49
55675;BME280;41562;44.330;23.802;2023-08-01T12:27:35;99481.16;;;28.38;65.95
55675;BME280;41562;44.330;23.802;2023-08-01T12:30:27;99478.66;;;28.51;66.37
55675;BME280;41562;44.330;23.802;2023-08-01T12:33:19;99477.56;;;28.45;67.80
55675;BME280;41562;44.330;23.802;2023-08-01T12:36:12;99470.56;;;28.37;65.61
55675;BME280;41562;44.330;23.802;2023-08-01T12:39:04;99465.38;;;28.43;64.85
55675;BME280;41562;44.330;23.802;2023-08-01T12:41:56;99450.66;;;28.26;65.60
55675;BME280;41562;44.330;23.802;2023-08-01T12:44:48;99449.09;;;28.21;65.33
55675;BME280;41562;44.330;23.802;2023-08-01T12:47:40;99441.16;;;28.30;65.63
55675;BME280;41562;44.330;23.802;2023-08-01T12:50:32;99437.97;;;28.35;65.25
55675;BME280;41562;44.330;23.802;2023-08-01T12:53:24;99440.16;;;28.48;65.60
55675;BME280;41562;44.330;23.802;2023-08-01T12:56:16;99432.84;;;28.68;65.94
55675;BME280;41562;44.330;23.802;2023-08-01T12:59:11;99437.53;;;28.74;65.30
55675;BME280;41562;44.330;23.802;2023-08-01T13:02:03;99424.19;;;28.69;64.95
55675;BME280;41562;44.330;23.802;2023-08-01T13:04:55;99430.81;;;28.72;64.12
55675;BME280;41562;44.330;23.802;2023-08-01T13:07:47;99421.16;;;28.60;65.10
55675;BME280;41562;44.330;23.802;2023-08-01T13:10:41;99417.16;;;28.65;65.33
55675;BME280;41562;44.330;23.802;2023-08-01T13:13:33;99425.88;;;28.60;65.86
55675;BME280;41562;44.330;23.802;2023-08-01T13:16:26;99421.78;;;28.41;65.45
55675;BME280;41562;44.330;23.802;2023-08-01T13:19:18;99421.47;;;28.35;64.39
55675;BME280;41562;44.330;23.802;2023-08-01T13:22:10;99422.94;;;28.44;64.17
55675;BME280;41562;44.330;23.802;2023-08-01T13:25:02;99416.78;;;28.32;63.00
55675;BME280;41562;44.330;23.802;2023-08-01T13:27:54;99407.94;;;28.48;62.64
55675;BME280;41562;44.330;23.802;2023-08-01T13:30:46;99414.78;;;28.33;62.58
55675;BME280;41562;44.330;23.802;2023-08-01T13:33:38;99406.72;;;28.19;62.74
55675;BME280;41562;44.330;23.802;2023-08-01T13:36:30;99402.81;;;28.16;62.61
55675;BME280;41562;44.330;23.802;2023-08-01T13:39:22;99415.81;;;28.46;63.13
55675;BME280;41562;44.330;23.802;2023-08-01T13:42:15;99408.59;;;28.59;61.12
55675;BME280;41562;44.330;23.802;2023-08-01T13:45:08;99404.56;;;28.37;62.38
55675;BME280;41562;44.330;23.802;2023-08-01T13:48:01;99409.44;;;28.22;62.74
55675;BME280;41562;44.330;23.802;2023-08-01T13:50:57;99402.84;;;28.13;62.91
55675;BME280;41562;44.330;23.802;2023-08-01T13:53:49;99398.22;;;28.02;63.69
55675;BME280;41562;44.330;23.802;2023-08-01T13:56:41;99407.25;;;28.03;63.46
55675;BME280;41562;44.330;23.802;2023-08-01T13:59:33;99402.13;;;28.05;62.90
55675;BME280;41562;44.330;23.802;2023-08-01T14:02:25;99400.56;;;28.04;62.29
55675;BME280;41562;44.330;23.802;2023-08-01T14:05:17;99395.53;;;27.95;62.83
55675;BME280;41562;44.330;23.802;2023-08-01T14:08:09;99388.13;;;27.92;60.99
55675;BME280;41562;44.330;23.802;2023-08-01T14:11:03;99383.41;;;27.93;59.90
55675;BME280;41562;44.330;23.802;2023-08-01T14:13:56;99388.31;;;28.12;60.06
55675;BME280;41562;44.330;23.802;2023-08-01T14:16:48;99383.19;;;28.14;60.04
55675;BME280;41562;44.330;23.802;2023-08-01T14:19:40;99374.06;;;28.24;59.41
55675;BME280;41562;44.330;23.802;2023-08-01T14:22:33;99374.06;;;28.24;58.65
55675;BME280;41562;44.330;23.802;2023-08-01T14:25:25;99374.94;;;28.14;59.65
55675;BME280;41562;44.330;23.802;2023-08-01T14:28:17;99372.28;;;28.07;60.44
55675;BME280;41562;44.330;23.802;2023-08-01T14:31:09;99378.16;;;28.06;60.16
55675;BME280;41562;44.330;23.802;2023-08-01T14:34:01;99367.06;;;28.16;58.73
55675;BME280;41562;44.330;23.802;2023-08-01T14:36:54;99369.38;;;28.21;58.03
55675;BME280;41562;44.330;23.802;2023-08-01T14:39:46;99355.94;;;28.27;57.54
55675;BME280;41562;44.330;23.802;2023-08-01T14:42:38;99363.22;;;28.44;57.88
55675;BME280;41562;44.330;23.802;2023-08-01T14:45:37;99361.91;;;28.52;57.22
55675;BME280;41562;44.330;23.802;2023-08-01T14:48:29;99354.81;;;28.55;56.81
55675;BME280;41562;44.330;23.802;2023-08-01T14:51:21;99348.22;;;28.49;56.00
55675;BME280;41562;44.330;23.802;2023-08-01T14:54:13;99344.03;;;28.37;56.41
55675;BME280;41562;44.330;23.802;2023-08-01T14:57:13;99338.94;;;28.35;56.20
55675;BME280;41562;44.330;23.802;2023-08-01T15:00:05;99336.03;;;28.46;55.28